Nearby METAR Reports

 

KEVV - Evansville, Indiana, USA
Distance from station: NNE 4mi, 7km
Updated: Thu, 17-Jun-2021 11:54am CDT
Clear
Clear
 Wind from SW
Wind: SW 3 mph , 6 km/h
Temperature: 84°F , 29°C
Heat Index: 83°F , 28°C
Dew Point: 57°F , 14°C
Humidity: 40%
Barometer: 30.03 inHg , 1016.9 hPa
Clouds: Clear
Visibility: 10 miles , 16 km
2021/06/17 16:54 KEVV 171654Z 22003KT 10SM CLR 29/14 A3003 RMK AO2 SLP165 T02890144 $
KEHR - Henderson City, Kentucky, USA
Distance from station: SSW 14mi, 22km
Updated: Thu, 17-Jun-2021 11:56am CDT
Clear
Clear
 Wind from ESE
Wind: ESE 6 mph , 9 km/h
Temperature: 84°F , 29°C
Heat Index: 85°F , 29°C
Dew Point: 63°F , 17°C
Humidity: 48%
Barometer: 30.03 inHg , 1016.9 hPa
Clouds: Clear
Visibility: 10 miles , 16 km
2021/06/17 16:56 KEHR 171656Z AUTO 12005KT 10SM CLR 29/17 A3003 RMK AO2 SLP167 T02940172
 
KOWB - Owensboro/Davies, Kentucky, USA
Distance from station: SE 29mi, 46km
Updated: Thu, 17-Jun-2021 11:56am CDT
Clear
Clear
 Wind from WSW
Wind: WSW 6 mph , 9 km/h
Temperature: 84°F , 29°C
Heat Index: 85°F , 29°C
Dew Point: 63°F , 17°C
Humidity: 48%
Barometer: 30.03 inHg , 1016.9 hPa
Clouds: Clear
Visibility: 10 miles , 16 km
2021/06/17 16:56 KOWB 171656Z 25005KT 10SM CLR 29/17 A3003 RMK AO2 SLP167 T02890167
KCUL - Carmi Muni, Illinois, USA
Distance from station: W 31mi, 50km
Updated: Thu, 17-Jun-2021 12:22pm CDT
Clear
Clear
 
Temperature: 84°F , 29°C
Heat Index: 84°F , 29°C
Dew Point: 61°F , 16°C
Humidity: 45%
Barometer: 30.00 inHg , 1015.9 hPa
Clouds: Clear
Visibility: 10 miles , 16 km
2021/06/17 17:22 KCUL 171722Z AUTO 10SM CLR 29/16 A3000 RMK AO2
 
KHNB - Huntingburg, Indiana, USA
Distance from station: ENE 37mi, 60km
Updated: Thu, 17-Jun-2021 11:56am CDT
Clear
Clear
 Wind from SSE
Wind: SSE 5 mph , 7 km/h
Temperature: 82°F , 28°C
Dew Point: 54°F , 12°C
Humidity: 37%
Barometer: 30.04 inHg , 1017.3 hPa
Clouds: Clear
Visibility: 10 miles , 16 km
2021/06/17 16:56 KHNB 171656Z AUTO 15004KT 10SM CLR 28/12 A3004 RMK AO2 SLP169 T02830122
KKY8 - Lewisport, Kentucky, USA
Distance from station: E 39mi, 62km
Updated: Thu, 17-Jun-2021 12:15pm CDT
Clear
Clear
 Wind from varies
Wind: varies 3 mph , 6 km/h
Temperature: 86°F , 30°C
Heat Index: 87°F , 31°C
Dew Point: 63°F , 17°C
Humidity: 46%
Barometer: 30.03 inHg , 1016.9 hPa
Clouds: Clear
Visibility: 10 miles , 16 km
2021/06/17 17:15 KKY8 171715Z AUTO VRB03KT 10SM CLR 30/17 A3003 RMK A01
 
KAJG - Mount Carmel, Illinois, USA
Distance from station: NNW 44mi, 71km
Updated: Thu, 17-Jun-2021 12:15pm CDT
Clear
Clear
 Wind from SE
Wind: SE 3 mph , 6 km/h
Temperature: 84°F , 29°C
Dew Point: 54°F , 12°C
Humidity: 35%
Barometer: 30.02 inHg , 1016.6 hPa
Clouds: Clear
Visibility: 10 miles , 16 km
2021/06/17 17:15 KAJG 171715Z AUTO 14003KT 10SM CLR 29/12 A3002 RMK AO2 T02860116
K2I0 - Madisonville, Kentucky, USA
Distance from station: S 45mi, 73km
Updated: Thu, 17-Jun-2021 12:15pm CDT
Partly cloudy
Partly cloudy
 Wind from calm
Wind: Calm
Temperature: 88°F , 31°C
Dew Point: 57°F , 14°C
Humidity: 35%
Barometer: 30.03 inHg , 1016.9 hPa
Clouds: Partly cloudy
Visibility: 10 miles , 16 km
Cloud details: Partly cloudy 5000 ft
2021/06/17 17:15 K2I0 171715Z AUTO 00000KT 10SM SCT050 31/14 A3003 RMK AO2 T03050135
Flag Counter